Flight Track Log - Related Links

Times and Time Zones

All times are in EDT time to prevent confusion due to time zone crossing. See the N5352K flight status page for this flight to view local times or setup timezone preferences in your user account.

Time Position Orientation Groundspeed Altitude Reporting Facility
EDT Latitude Longitude Course Direction KTS MPH feet Rate Location/Type
Mon 13:00:43 25.9160 -80.2340 90° East 72 83 1,400  Level FlightAware ADS-B
Mon 13:01:02 25.9180 -80.2270 72° East 77 89 1,600 600 Climbing FlightAware ADS-B
Mon 13:01:13 25.9220 -80.2250 24° Northeast 82 94 1,700 581 Climbing FlightAware ADS-B
Mon 13:01:33 25.9290 -80.2260 353° North 82 94 1,900 563 Climbing FlightAware ADS-B
Mon 13:01:45 25.9340 -80.2270 350° North 85 98 2,000 632 Climbing FlightAware ADS-B
Mon 13:01:52 25.9370 -80.2280 343° North 87 100 2,100 200 Climbing FlightAware ADS-B
Mon 13:02:15 25.9460 -80.2340 329° Northwest 96 110 2,100  Level FlightAware ADS-B
Mon 13:02:27 25.9510 -80.2360 340° North 102 117 2,100 -182 Level FlightAware ADS-B
Mon 13:02:48 25.9600 -80.2400 338° Northwest 105 121 2,000 -115 Descending FlightAware ADS-B
Mon 13:03:19 25.9740 -80.2450 342° North 104 120 2,000 118 Level FlightAware ADS-B
Mon 13:03:39 25.9820 -80.2470 347° North 99 114 2,100 500 Climbing FlightAware ADS-B
Mon 13:03:55 25.9900 -80.2490 347° North 86 99 2,300 667 Climbing FlightAware ADS-B
Mon 13:04:15 25.9990 -80.2520 343° North 99 114 2,500 600 Climbing FlightAware ADS-B
Mon 13:04:25 26.0030 -80.2540 336° Northwest 96 110 2,600 632 Climbing FlightAware ADS-B
Mon 13:04:34 26.0060 -80.2570 318° Northwest 91 105 2,700 400 Climbing FlightAware ADS-B
Mon 13:04:40 26.0060 -80.2590 270° West 92 106 2,700 324 Level FlightAware ADS-B
Mon 13:05:11 26.0060 -80.2720 270° West 95 109 2,900 679 Climbing FlightAware ADS-B
Mon 13:05:33 26.0060 -80.2850 270° West 96 110 3,300 913 Climbing FlightAware ADS-B
Mon 13:05:57 26.0060 -80.2970 270° West 96 110 3,600 667 Climbing FlightAware ADS-B
Mon 13:06:18 26.0060 -80.3070 270° West 91 105 3,800 581 Climbing FlightAware ADS-B
Mon 13:06:28 26.0060 -80.3120 270° West 89 102 3,900 353 Climbing FlightAware ADS-B
Mon 13:06:52 26.0050 -80.3230 264° West 91 105 4,000 133 Climbing FlightAware ADS-B
Mon 13:07:13 26.0050 -80.3330 270° West 97 112 4,000 167 Level FlightAware ADS-B
Mon 13:07:28 26.0050 -80.3410 270° West 101 116 4,100 118 Climbing FlightAware ADS-B
Mon 13:08:04 26.0040 -80.3600 267° West 107 123 4,100  Level FlightAware ADS-B
Mon 13:08:29 26.0020 -80.3730 260° West 102 117 4,100  Level FlightAware ADS-B
Mon 13:08:50 26.0010 -80.3840 264° West 100 115 4,100  Level FlightAware ADS-B
Mon 13:09:12 26.0000 -80.3960 265° West 105 121 4,100 -162 Level FlightAware ADS-B
Mon 13:09:27 25.9990 -80.4040 262° West 105 121 4,000 -167 Descending FlightAware ADS-B
Mon 13:09:48 25.9990 -80.4140 270° West 100 115 4,000  Level FlightAware ADS-B
Mon 13:10:03 25.9980 -80.4220 262° West 99 114 4,000 324 Level FlightAware ADS-B
Mon 13:10:25 25.9990 -80.4340 275° West 102 117 4,200 194 Climbing FlightAware ADS-B
Mon 13:10:34 26.0000 -80.4390 283° West 112 129 4,100 -207 Descending FlightAware ADS-B
Mon 13:10:54 26.0010 -80.4510 275° West 107 123 4,100  Level FlightAware ADS-B
Mon 13:11:31 25.9990 -80.4660 262° West 101 116 4,100 -100 Level FlightAware ADS-B
Mon 13:11:54 25.9960 -80.4820 258° West 104 120 4,000  Descending FlightAware ADS-B
Mon 13:12:09 25.9960 -80.4890 270° West 97 112 4,100 286 Climbing FlightAware ADS-B
Mon 13:12:15 25.9970 -80.4910 299° West 99 114 4,100 -231 Level FlightAware ADS-B
Mon 13:12:35 26.0010 -80.5010 294° West 98 113 4,000 -200 Descending FlightAware ADS-B
Mon 13:12:45 26.0030 -80.5060 294° West 102 117 4,000 250 Level FlightAware ADS-B
Mon 13:12:59 26.0070 -80.5120 307° West 95 109 4,100  Climbing FlightAware ADS-B
Mon 13:13:14 26.0110 -80.5180 307° West 99 114 4,000 -200 Descending FlightAware ADS-B
Mon 13:13:29 26.0160 -80.5230 318° Northwest 94 108 4,000  Level FlightAware ADS-B
Mon 13:13:50 26.0230 -80.5310 314° West 94 108 4,000 143 Level FlightAware ADS-B
Mon 13:14:11 26.0290 -80.5370 318° Northwest 95 109 4,100 136 Climbing FlightAware ADS-B
Mon 13:14:34 26.0380 -80.5470 315° West 98 113 4,100  Level FlightAware ADS-B
Mon 13:14:50 26.0420 -80.5510 318° Northwest 98 113 4,100  Level FlightAware ADS-B
Mon 13:15:05 26.0470 -80.5560 318° Northwest 101 116 4,100  Level FlightAware ADS-B
Mon 13:15:29 26.0580 -80.5660 321° Northwest 107 123 4,100  Level FlightAware ADS-B
Mon 13:15:50 26.0650 -80.5720 322° Northwest 101 116 4,100 -167 Level FlightAware ADS-B
Mon 13:16:05 26.0700 -80.5780 313° West 106 122 4,000 -200 Descending FlightAware ADS-B
Mon 13:16:20 26.0760 -80.5850 314° West 102 117 4,000 88 Level FlightAware ADS-B
Mon 13:16:41 26.0830 -80.5930 314° West 104 120 113 Descending FlightAware ADS-B
Mon 13:17:13 26.0930 -80.6060 311° West 102 117 4,100 4,033 Climbing FlightAware ADS-B
Mon 13:17:42 26.1020 -80.6180 310° West 97 112 4,100  Level FlightAware ADS-B
Mon 13:18:03 26.1090 -80.6250 318° Northwest 96 110 4,100  Level FlightAware ADS-B
Mon 13:18:27 26.1180 -80.6340 318° Northwest 106 122 4,100  Level FlightAware ADS-B
Mon 13:18:52 26.1280 -80.6430 321° Northwest 105 121 4,100 -120 Level FlightAware ADS-B
Mon 13:19:17 26.1370 -80.6520 318° Northwest 99 114 4,000 -146 Descending FlightAware ADS-B
Mon 13:19:33 26.1430 -80.6580 318° Northwest 98 113 4,000  Level FlightAware ADS-B
Mon 13:20:02 26.1530 -80.6690 315° West 97 112 4,000  Level FlightAware ADS-B
Mon 13:20:22 26.1600 -80.6770 314° West 104 120 4,000 261 Level FlightAware ADS-B
Mon 13:20:48 26.1670 -80.6860 311° West 88 101 4,200 585 Climbing FlightAware ADS-B
Mon 13:21:03 26.1710 -80.6920 307° West 88 101 4,400 529 Climbing FlightAware ADS-B
Mon 13:21:22 26.1770 -80.6990 314° West 86 99 4,500 450 Climbing FlightAware ADS-B
Mon 13:21:43 26.1820 -80.7070 305° West 91 105 4,700 439 Climbing FlightAware ADS-B
Mon 13:22:03 26.1870 -80.7150 305° West 92 106 4,800 450 Climbing FlightAware ADS-B
Mon 13:22:23 26.1920 -80.7230 305° West 96 110 5,000 414 Climbing FlightAware ADS-B
Mon 13:22:32 26.1940 -80.7270 299° West 94 108 5,000 414 Level FlightAware ADS-B
Mon 13:22:52 26.1980 -80.7360 296° West 96 110 5,200 514 Climbing FlightAware ADS-B
Mon 13:23:07 26.2020 -80.7430 302° West 97 112 5,300 293 Climbing FlightAware ADS-B
Mon 13:23:33 26.2070 -80.7540 297° West 94 108 5,400 360 Climbing FlightAware ADS-B
Mon 13:23:57 26.2120 -80.7650 297° West 93 107 5,600 439 Climbing FlightAware ADS-B
Mon 13:24:14 26.2150 -80.7720 296° West 100 115 5,700 500 Climbing FlightAware ADS-B
Mon 13:24:33 26.2200 -80.7800 305° West 97 112 5,900 474 Climbing FlightAware ADS-B
Mon 13:24:52 26.2270 -80.7870 318° Northwest 92 106 6,000 176 Climbing FlightAware ADS-B
Mon 13:25:07 26.2310 -80.7920 312° West 100 115 6,000 146 Level FlightAware ADS-B
Mon 13:25:33 26.2400 -80.8020 315° West 94 108 6,100 130 Climbing FlightAware ADS-B
Mon 13:25:53 26.2470 -80.8090 318° Northwest 97 112 6,100  Level FlightAware ADS-B
Mon 13:26:15 26.2540 -80.8160 318° Northwest 94 108 6,100  Level FlightAware ADS-B
Mon 13:26:27 26.2590 -80.8210 318° Northwest 99 114 6,100  Level FlightAware ADS-B
Mon 13:26:53 26.2680 -80.8310 315° West 117 135 6,100  Level FlightAware ADS-B
Mon 13:27:08 26.2740 -80.8370 318° Northwest 110 127 6,100 -176 Level FlightAware ADS-B
Mon 13:27:27 26.2810 -80.8440 318° Northwest 109 125 6,000 -207 Descending FlightAware ADS-B
Mon 13:27:37 26.2850 -80.8480 318° Northwest 99 114 6,000  Level FlightAware ADS-B
Mon 13:28:02 26.2940 -80.8570 318° Northwest 98 113 6,000  Level FlightAware ADS-B
Mon 13:28:23 26.3020 -80.8640 322° Northwest 103 119 6,000  Level FlightAware ADS-B
Mon 13:28:44 26.3090 -80.8710 318° Northwest 98 113 6,000  Level FlightAware ADS-B
Mon 13:28:57 26.3140 -80.8760 318° Northwest 96 110 6,000  Level FlightAware ADS-B
Mon 13:29:18 26.3210 -80.8830 318° Northwest 92 106 6,000 -167 Level FlightAware ADS-B
Mon 13:29:33 26.3270 -80.8880 323° Northwest 104 120 5,900 -414 Descending FlightAware ADS-B
Mon 13:29:47 26.3320 -80.8920 324° Northwest 95 109 5,800 -706 Descending FlightAware ADS-B
Mon 13:30:07 26.3400 -80.9000 318° Northwest 105 121 5,500 -833 Descending FlightAware ADS-B
Mon 13:30:23 26.3460 -80.9050 323° Northwest 103 119 5,300 -833 Descending FlightAware ADS-B
Mon 13:30:43 26.3540 -80.9110 326° Northwest 105 121 5,000 -769 Descending FlightAware ADS-B
Mon 13:31:02 26.3620 -80.9180 322° Northwest 108 124 4,800 -900 Descending FlightAware ADS-B
Mon 13:31:23 26.3700 -80.9250 322° Northwest 108 124 4,400 -1,029 Descending FlightAware ADS-B
Mon 13:31:37 26.3760 -80.9310 318° Northwest 106 122 4,200 -514 Descending FlightAware ADS-B
Mon 13:31:58 26.3830 -80.9380 318° Northwest 97 112 4,100 -150 Descending FlightAware ADS-B
Mon 13:32:17 26.3890 -80.9460 310° West 98 113 4,100  Level FlightAware ADS-B
Mon 13:32:48 26.3990 -80.9580 313° West 104 120 4,100 -130 Level FlightAware ADS-B
Mon 13:33:03 26.4040 -80.9640 313° West 101 116 4,000 -154 Descending FlightAware ADS-B
Mon 13:33:27 26.4120 -80.9730 315° West 103 119 4,000  Level FlightAware ADS-B
Mon 13:33:44 26.4170 -80.9790 313° West 95 109 4,000  Level FlightAware ADS-B
Mon 13:34:03 26.4240 -80.9860 318° Northwest 92 106 4,000 250 Level FlightAware ADS-B
Mon 13:34:08 26.4260 -80.9880 318° Northwest 101 116 4,100  Climbing FlightAware ADS-B
Mon 13:34:28 26.4330 -80.9950 318° Northwest 99 114 4,000 -171 Descending FlightAware ADS-B
Mon 13:34:43 26.4380 -81.0000 318° Northwest 99 114 4,000  Level FlightAware ADS-B
Mon 13:35:03 26.4450 -81.0080 314° West 97 112 4,000  Level FlightAware ADS-B
Mon 13:35:23 26.4510 -81.0140 318° Northwest 95 109 4,000  Level FlightAware ADS-B
Mon 13:35:56 26.4610 -81.0250 315° West 95 109 4,000  Level FlightAware ADS-B
Mon 13:37:22 26.4930 -81.0560 319° Northwest 4,100  Climbing FlightAware ADS-B
Mon 13:38:28 26.5164 -81.0819 319° Northwest 106 122 4,000 -48 Descending Miami Center
Mon 13:39:28 26.5344 -81.1058 310° West 106 122 4,000  Level Miami Center
Mon 13:40:28 26.5464 -81.1294 299° West 101 116 4,000 50 Level Miami Center
Mon 13:41:28 26.5644 -81.1533 310° West 101 116 4,100 50 Climbing Miami Center
Mon 13:42:28 26.5869 -81.1728 322° Northwest 101 116 4,100  Level Miami Center
Mon 13:43:28 26.6092 -81.1944 319° Northwest 101 116 4,100  Level Miami Center
Mon 13:44:28 26.6314 -81.2161 319° Northwest 101 116 4,100  Level Miami Center
Mon 13:46:00 26.6620 -81.2437 321° Northwest  Level FlightAware Approximate
Mon 13:53:00 26.8019 -81.3700 321° Northwest  Level FlightAware Approximate
Mon 13:54:00 26.8134 -81.3903 242° Southwest  Level FlightAware Approximate
Mon 13:55:00 26.8014 -81.4157 242° Southwest  Level FlightAware Approximate
Mon 13:56:00 26.7894 -81.4411 242° Southwest  Level FlightAware Approximate
Mon 13:57:00 26.7774 -81.4665 242° Southwest  Level FlightAware Approximate
Mon 13:58:00 26.7654 -81.4919 242° Southwest  Level FlightAware Approximate
Mon 13:59:00 26.7533 -81.5173 242° Southwest  Level FlightAware Approximate
Mon 14:00:00 26.7413 -81.5427 242° Southwest  Level FlightAware Approximate
Mon 14:01:00 26.7293 -81.5681 242° Southwest  Level FlightAware Approximate
Mon 14:02:00 26.7173 -81.5935 242° Southwest  Level FlightAware Approximate
Mon 14:03:00 26.7052 -81.6189 242° Southwest  Level FlightAware Approximate
Mon 14:04:00 26.6932 -81.6442 242° Southwest  Level FlightAware Approximate
Mon 14:05:00 26.6811 -81.6696 242° Southwest  Level FlightAware Approximate
Mon 14:06:00 26.6691 -81.6949 242° Southwest  Level FlightAware Approximate
Mon 14:07:00 26.6535 -81.7176 230° Southwest  Level FlightAware Approximate
Mon 14:08:00 26.6370 -81.7396 230° Southwest  Level FlightAware Approximate
Mon 14:09:00 26.6205 -81.7616 230° Southwest  Level FlightAware Approximate
Mon 14:10:00 26.6086 -81.7868 246° West  Level FlightAware Approximate
Mon 14:11:00 26.5981 -81.8130 246° West  Level FlightAware Approximate
Mon 14:12:00 26.5876 -81.8392 246° West  Level FlightAware Approximate
Mon 14:13:00 26.5833 -81.8500 246° West  Level FlightAware Approximate
Mon 14:14:00 26.5866 -81.8633 246° West  Level Estimated
Mon 14:15:00 26.5866 -81.8633 246° West  Level Estimated
Mon 14:16:00 26.5866 -81.8633 246° West  Level Estimated
Mon 14:17:00 26.5866 -81.8633 246° West  Level Estimated
Mon 14:18:00 26.5866 -81.8633 246° West  Level Estimated
Mon 14:19:00 26.5866 -81.8633 246° West  Level Estimated
Mon 14:20:00 26.5866 -81.8633 246° West  Level Estimated
Mon 14:21:00 26.5866 -81.8633 246° West  Level Estimated
Mon 14:22:00 26.5866 -81.8633 246° West  Level Estimated
Mon 14:23:00 26.5866 -81.8633 246° West  Level Estimated
Mon 14:24:00 26.5866 -81.8633 246° West  Level Estimated
Mon 14:25:00 26.5866 -81.8633 246° West  Level Estimated
Mon 14:26:00 26.5866 -81.8633 246° West  Level Estimated

Login

Don't have an account? Register now (free) for customized features, flight alerts, and more!